Time;durP1;ratioP1;P1;durP2;ratioP2;P2;SDS_P1;SDS_P2;PMS_P1;PMS_P2;Temp;Humidity;BMP_temperature;BMP_pressure;BME280_temperature;BME280_humidity;BME280_pressure;Samples;Min_cycle;Max_cycle;Signal;HPM_P1;HPM_P2
2021/12/13 00:00:33;;;;;;;46.10;16.60;;;10.80;99.90;;;;;;4979233;28;20457;-70
2021/12/13 00:03:07;;;;;;;24.60;13.87;;;10.80;99.90;;;;;;4982029;28;20486;-70
2021/12/13 00:05:38;;;;;;;14.90;10.10;;;10.80;99.90;;;;;;4980393;28;20884;-71
2021/12/13 00:08:08;;;;;;;17.60;9.47;;;10.80;99.90;;;;;;4986172;28;20466;-68
2021/12/13 00:10:40;;;;;;;24.67;11.07;;;10.80;99.90;;;;;;4985982;28;20460;-70
2021/12/13 00:13:11;;;;;;;19.43;12.00;;;10.80;99.90;;;;;;4987311;28;20509;-72
2021/12/13 00:15:49;;;;;;;19.63;11.80;;;10.80;99.90;;;;;;4980161;28;20445;-70
2021/12/13 00:18:20;;;;;;;22.00;11.00;;;10.70;99.90;;;;;;4982108;28;20556;-71
2021/12/13 00:20:54;;;;;;;28.13;13.83;;;10.70;99.90;;;;;;4986967;28;20464;-70
2021/12/13 00:23:27;;;;;;;28.67;12.93;;;10.70;99.90;;;;;;4986039;28;20800;-70
2021/12/13 00:25:59;;;;;;;24.07;11.60;;;10.70;99.90;;;;;;4972702;28;20545;-70
2021/12/13 00:28:32;;;;;;;18.73;10.00;;;10.70;99.90;;;;;;4983286;28;20462;-70
2021/12/13 00:31:19;;;;;;;26.47;12.20;;;10.60;99.90;;;;;;4983704;28;21017;-69
2021/12/13 00:33:58;;;;;;;23.43;9.07;;;10.60;99.90;;;;;;4985651;28;20518;-70
2021/12/13 00:36:33;;;;;;;9.40;5.17;;;10.60;99.90;;;;;;4981177;28;21046;-69
2021/12/13 00:39:06;;;;;;;19.90;10.97;;;10.70;99.90;;;;;;4983400;28;20431;-70
2021/12/13 00:41:35;;;;;;;16.33;9.27;;;10.60;99.90;;;;;;4976780;28;20492;-70
2021/12/13 00:44:06;;;;;;;21.17;9.10;;;10.70;99.90;;;;;;4983148;28;20490;-69
2021/12/13 00:46:36;;;;;;;28.60;13.53;;;10.70;99.90;;;;;;4981096;28;20571;-70
2021/12/13 00:49:09;;;;;;;20.17;11.37;;;10.60;99.90;;;;;;4974522;28;20583;-69
2021/12/13 00:51:37;;;;;;;23.50;13.30;;;10.70;99.90;;;;;;4984447;28;20961;-69
2021/12/13 00:54:13;;;;;;;25.53;10.13;;;10.70;99.90;;;;;;4976631;28;20475;-70
2021/12/13 00:57:03;;;;;;;12.13;9.73;;;10.80;99.90;;;;;;4971186;28;27014;-70
2021/12/13 00:59:34;;;;;;;18.80;8.50;;;10.80;99.90;;;;;;4985810;28;20973;-69
2021/12/13 01:02:06;;;;;;;16.00;7.07;;;10.70;99.90;;;;;;4972554;28;22021;-70
2021/12/13 01:05:01;;;;;;;24.60;11.00;;;10.70;99.90;;;;;;4972981;28;20483;-69
2021/12/13 01:08:13;;;;;;;12.20;7.47;;;10.70;99.90;;;;;;4979721;28;20435;-69
2021/12/13 01:11:10;;;;;;;13.83;8.00;;;10.70;99.90;;;;;;4977904;28;20617;-70
2021/12/13 01:14:04;;;;;;;17.30;8.67;;;10.60;99.90;;;;;;4980734;28;20481;-71
2021/12/13 01:16:49;;;;;;;15.03;6.87;;;10.70;99.90;;;;;;4974347;28;20843;-69
2021/12/13 01:19:30;;;;;;;29.83;11.13;;;10.70;99.90;;;;;;4982747;28;20923;-69
2021/12/13 01:22:33;;;;;;;19.10;11.67;;;10.80;99.90;;;;;;4983798;28;20497;-70
2021/12/13 01:25:19;;;;;;;18.77;8.70;;;10.80;99.90;;;;;;4980717;28;20481;-68
2021/12/13 01:27:54;;;;;;;16.10;7.43;;;10.80;99.90;;;;;;4981237;28;20461;-71
2021/12/13 01:30:27;;;;;;;18.17;8.40;;;10.80;99.90;;;;;;4978021;28;20613;-70
2021/12/13 01:32:57;;;;;;;16.90;8.20;;;10.70;99.90;;;;;;4979132;28;21325;-70
2021/12/13 01:35:29;;;;;;;11.60;7.80;;;10.70;99.90;;;;;;4980305;28;20950;-69
2021/12/13 01:38:02;;;;;;;10.20;6.47;;;10.70;99.90;;;;;;4986440;28;20489;-69
2021/12/13 01:40:34;;;;;;;17.63;9.23;;;10.60;99.90;;;;;;4982248;28;20445;-70
2021/12/13 01:43:06;;;;;;;10.27;7.57;;;10.60;99.90;;;;;;4985484;28;20463;-69
2021/12/13 01:45:36;;;;;;;23.93;9.93;;;10.60;99.90;;;;;;4968006;28;21050;-69
2021/12/13 01:48:04;;;;;;;15.80;10.70;;;10.70;99.90;;;;;;4984045;28;20492;-70
2021/12/13 01:50:44;;;;;;;22.27;9.90;;;10.70;99.90;;;;;;4980906;28;20543;-69
2021/12/13 01:53:11;;;;;;;18.70;10.60;;;10.70;99.90;;;;;;4985028;28;20600;-70
2021/12/13 01:55:45;;;;;;;16.27;10.33;;;10.70;99.90;;;;;;4983429;28;20498;-70
2021/12/13 01:58:36;;;;;;;15.53;8.57;;;10.60;99.90;;;;;;4985876;28;20441;-69
2021/12/13 02:01:11;;;;;;;19.17;11.67;;;10.50;99.90;;;;;;4979509;28;20436;-70
2021/12/13 02:03:48;;;;;;;15.30;8.73;;;10.60;99.90;;;;;;4989193;28;20466;-70
2021/12/13 02:06:26;;;;;;;17.07;8.87;;;10.60;99.90;;;;;;4983352;28;20494;-70
2021/12/13 02:08:58;;;;;;;15.03;9.70;;;10.70;99.90;;;;;;4988373;28;20460;-70
2021/12/13 02:11:28;;;;;;;15.03;7.80;;;10.70;99.90;;;;;;4985737;28;20512;-70
2021/12/13 02:14:12;;;;;;;23.57;12.03;;;10.70;99.90;;;;;;4985736;28;20902;-69
2021/12/13 02:16:58;;;;;;;16.77;11.97;;;10.70;99.90;;;;;;4983961;28;20480;-69
2021/12/13 02:19:32;;;;;;;14.93;8.00;;;10.80;99.90;;;;;;4986350;28;20446;-69
2021/12/13 02:22:09;;;;;;;21.80;11.60;;;10.80;99.90;;;;;;4990421;28;20837;-71
2021/12/13 02:24:39;;;;;;;15.70;10.27;;;10.70;99.90;;;;;;4977479;28;20708;-70
2021/12/13 02:27:07;;;;;;;24.60;14.43;;;10.70;99.90;;;;;;4982300;28;20462;-70
2021/12/13 02:29:37;;;;;;;23.27;10.93;;;10.70;99.90;;;;;;4983360;28;20566;-70
2021/12/13 02:32:06;;;;;;;31.13;14.97;;;10.60;99.90;;;;;;4985181;28;20452;-69
2021/12/13 02:34:36;;;;;;;19.17;10.63;;;10.60;99.90;;;;;;4980513;28;20481;-69
2021/12/13 02:37:04;;;;;;;26.67;12.47;;;10.60;99.90;;;;;;4985399;28;20644;-70
2021/12/13 02:39:35;;;;;;;14.97;8.87;;;10.60;99.90;;;;;;4982363;28;21167;-70
2021/12/13 02:42:08;;;;;;;21.93;9.13;;;10.70;99.90;;;;;;4983270;28;20580;-70
2021/12/13 02:44:39;;;;;;;23.00;10.57;;;10.70;99.90;;;;;;4985671;28;21120;-69
2021/12/13 02:47:09;;;;;;;17.60;11.80;;;10.60;99.90;;;;;;4988930;28;20750;-70
2021/12/13 02:49:39;;;;;;;15.87;9.90;;;10.60;99.90;;;;;;4992887;28;20463;-70
2021/12/13 02:52:09;;;;;;;22.57;12.37;;;10.60;99.90;;;;;;4989224;28;20489;-69
2021/12/13 02:54:41;;;;;;;17.40;11.00;;;10.60;99.90;;;;;;4981914;28;20549;-70
2021/12/13 02:57:15;;;;;;;15.57;10.03;;;10.60;99.90;;;;;;4985014;28;20505;-69
2021/12/13 02:59:45;;;;;;;23.43;13.63;;;10.70;99.90;;;;;;4984457;28;20604;-71
2021/12/13 03:02:16;;;;;;;24.47;10.10;;;10.70;99.90;;;;;;4989156;28;20489;-70
2021/12/13 03:04:43;;;;;;;23.10;11.60;;;10.70;99.90;;;;;;4967628;28;21315;-69
2021/12/13 03:07:15;;;;;;;20.77;11.17;;;10.70;99.90;;;;;;4981144;28;20437;-70
2021/12/13 03:09:45;;;;;;;26.17;12.70;;;10.80;99.90;;;;;;4983587;28;20515;-69
2021/12/13 03:12:16;;;;;;;27.33;11.03;;;10.60;99.90;;;;;;4983203;28;20555;-69
2021/12/13 03:14:47;;;;;;;20.57;11.63;;;10.60;99.90;;;;;;4980382;28;20494;-69
2021/12/13 03:17:18;;;;;;;20.90;9.97;;;10.60;99.90;;;;;;4983276;28;20496;-71
2021/12/13 03:19:58;;;;;;;15.73;7.10;;;10.70;99.90;;;;;;4986846;28;21960;-71
2021/12/13 03:22:46;;;;;;;17.17;10.00;;;10.80;99.90;;;;;;4981099;28;20466;-70
2021/12/13 03:25:18;;;;;;;21.13;10.93;;;10.70;99.90;;;;;;4977156;28;20459;-69
2021/12/13 03:28:10;;;;;;;22.57;10.70;;;10.70;99.90;;;;;;4984852;28;20541;-69
2021/12/13 03:30:44;;;;;;;17.10;9.43;;;10.70;99.90;;;;;;4979024;28;20455;-69
2021/12/13 03:33:14;;;;;;;19.63;11.27;;;10.70;99.90;;;;;;4981273;28;20536;-70
2021/12/13 03:35:50;;;;;;;15.43;9.33;;;10.70;99.90;;;;;;4980650;28;20458;-69
2021/12/13 03:38:21;;;;;;;10.93;6.40;;;10.70;99.90;;;;;;4985889;28;22242;-70
2021/12/13 03:40:49;;;;;;;16.83;9.20;;;10.70;99.90;;;;;;4975632;28;20466;-69
2021/12/13 03:43:20;;;;;;;13.50;7.07;;;10.70;99.90;;;;;;4985506;28;20591;-71
2021/12/13 03:45:52;;;;;;;19.60;9.30;;;10.70;99.90;;;;;;4985018;28;20552;-69
2021/12/13 03:48:22;;;;;;;13.83;8.53;;;10.60;99.90;;;;;;4984226;28;21183;-69
2021/12/13 03:50:55;;;;;;;13.30;8.73;;;10.70;99.90;;;;;;4982419;28;20660;-70
2021/12/13 03:53:24;;;;;;;19.03;7.40;;;10.60;99.90;;;;;;4987030;28;21374;-70
2021/12/13 03:55:56;;;;;;;10.80;5.60;;;10.70;99.90;;;;;;4977312;28;20473;-69
2021/12/13 03:58:25;;;;;;;10.23;8.07;;;10.60;99.90;;;;;;4979938;28;20969;-69
2021/12/13 04:00:57;;;;;;;14.00;7.97;;;10.60;99.90;;;;;;4979264;28;20489;-70
2021/12/13 04:03:25;;;;;;;13.70;10.67;;;10.60;99.90;;;;;;4983189;28;20551;-70
2021/12/13 04:05:53;;;;;;;12.47;5.70;;;10.60;99.90;;;;;;4975819;28;20466;-69
2021/12/13 04:08:21;;;;;;;14.87;7.70;;;10.60;99.90;;;;;;4981678;28;20461;-69
2021/12/13 04:10:51;;;;;;;13.10;6.73;;;10.70;99.90;;;;;;4972583;28;20554;-71
2021/12/13 04:13:21;;;;;;;9.60;6.03;;;10.60;99.90;;;;;;4984661;28;20513;-68
2021/12/13 04:16:01;;;;;;;11.73;6.13;;;10.70;99.90;;;;;;4983976;28;20830;-68
2021/12/13 04:19:06;;;;;;;12.00;6.93;;;10.70;99.90;;;;;;4979975;28;20533;-69
2021/12/13 04:21:35;;;;;;;16.00;8.43;;;10.70;99.90;;;;;;4973448;28;20840;-70
2021/12/13 04:24:06;;;;;;;13.07;6.43;;;10.80;99.90;;;;;;4978905;28;20489;-72
2021/12/13 04:26:41;;;;;;;10.93;6.43;;;10.80;99.90;;;;;;4975297;28;20490;-70
2021/12/13 04:29:15;;;;;;;10.33;6.83;;;10.80;99.90;;;;;;4977659;28;21342;-71
2021/12/13 04:31:44;;;;;;;10.00;6.17;;;10.70;99.90;;;;;;4985231;28;20581;-71
2021/12/13 04:34:11;;;;;;;8.97;5.93;;;10.70;99.90;;;;;;4982075;28;20484;-70
2021/12/13 04:36:42;;;;;;;7.80;6.83;;;10.60;99.90;;;;;;4974723;28;20465;-71
2021/12/13 04:39:18;;;;;;;7.30;6.07;;;10.70;99.90;;;;;;4986580;28;20505;-70
2021/12/13 04:41:47;;;;;;;13.23;5.83;;;10.70;99.90;;;;;;4986889;28;20465;-70
2021/12/13 04:44:18;;;;;;;11.77;6.30;;;10.60;99.90;;;;;;4982407;28;20470;-70
2021/12/13 04:46:52;;;;;;;11.13;7.20;;;10.50;99.90;;;;;;4979621;28;20494;-70
2021/12/13 04:49:25;;;;;;;10.97;6.00;;;10.60;99.90;;;;;;4986821;28;20978;-70
2021/12/13 04:51:55;;;;;;;7.97;4.87;;;10.70;99.90;;;;;;4981983;28;20625;-70
2021/12/13 04:54:26;;;;;;;5.47;4.30;;;10.70;99.90;;;;;;4980734;28;20835;-69
2021/12/13 04:56:54;;;;;;;9.10;6.07;;;10.70;99.90;;;;;;4979823;28;20481;-71
2021/12/13 04:59:21;;;;;;;8.60;5.40;;;10.60;99.90;;;;;;4976453;28;20458;-72
2021/12/13 05:01:53;;;;;;;12.60;4.93;;;10.60;99.90;;;;;;4976598;28;20509;-69
2021/12/13 05:04:21;;;;;;;9.30;4.33;;;10.70;99.90;;;;;;4977107;28;20919;-68
2021/12/13 05:06:50;;;;;;;9.97;5.30;;;10.70;99.90;;;;;;4972859;28;20465;-71
2021/12/13 05:09:20;;;;;;;5.57;4.70;;;10.70;99.90;;;;;;4971897;28;20463;-70
2021/12/13 05:11:49;;;;;;;7.63;4.30;;;10.70;99.90;;;;;;4976363;28;20517;-71
2021/12/13 05:14:17;;;;;;;7.73;5.20;;;10.70;99.90;;;;;;4979877;28;21525;-70
2021/12/13 05:16:49;;;;;;;5.83;4.03;;;10.70;99.90;;;;;;4974226;28;20540;-69
2021/12/13 05:19:27;;;;;;;11.30;4.97;;;10.60;99.90;;;;;;4979391;28;20547;-70
2021/12/13 05:21:58;;;;;;;6.70;4.33;;;10.50;99.90;;;;;;4974083;28;20501;-68
2021/12/13 05:24:28;;;;;;;7.67;4.20;;;10.50;99.90;;;;;;4974423;28;20702;-68
2021/12/13 05:26:58;;;;;;;8.50;3.70;;;10.50;99.90;;;;;;4972578;28;20549;-72
2021/12/13 05:29:29;;;;;;;6.73;4.60;;;10.50;99.90;;;;;;4981848;28;20973;-70
2021/12/13 05:31:59;;;;;;;7.20;5.07;;;10.50;99.90;;;;;;4974225;28;21084;-71
2021/12/13 05:34:33;;;;;;;7.20;4.40;;;10.60;99.90;;;;;;4966019;28;20485;-69
2021/12/13 05:37:03;;;;;;;7.03;4.27;;;10.50;99.90;;;;;;4973806;28;20486;-70
2021/12/13 05:39:30;;;;;;;7.27;4.03;;;10.60;99.90;;;;;;4974927;28;20578;-72
2021/12/13 05:42:01;;;;;;;6.47;3.77;;;10.70;99.90;;;;;;4978971;28;20491;-70
2021/12/13 05:44:32;;;;;;;5.53;4.17;;;10.70;99.90;;;;;;4978466;28;20478;-70
2021/12/13 05:47:01;;;;;;;5.97;3.50;;;10.80;99.90;;;;;;4982120;28;20544;-69
2021/12/13 05:49:33;;;;;;;9.07;4.70;;;10.80;99.90;;;;;;4973591;28;20554;-70
2021/12/13 05:52:08;;;;;;;9.47;4.27;;;10.80;99.90;;;;;;4977671;28;20548;-70
2021/12/13 05:54:38;;;;;;;5.87;3.37;;;10.80;99.90;;;;;;4983512;28;20539;-71
2021/12/13 05:57:10;;;;;;;9.73;5.57;;;10.70;99.90;;;;;;4979315;28;20462;-71
2021/12/13 05:59:40;;;;;;;8.97;4.60;;;10.60;99.90;;;;;;4980527;28;20455;-70
2021/12/13 06:02:13;;;;;;;7.50;4.57;;;10.60;99.90;;;;;;4978394;28;20730;-70
2021/12/13 06:04:45;;;;;;;5.10;3.80;;;10.70;99.90;;;;;;4977637;28;20541;-69
2021/12/13 06:07:19;;;;;;;7.30;4.87;;;10.70;99.90;;;;;;4978372;28;20556;-70
2021/12/13 06:09:59;;;;;;;8.47;4.10;;;10.60;99.90;;;;;;4987237;28;20434;-70
2021/12/13 06:12:32;;;;;;;5.77;4.40;;;10.80;99.90;;;;;;4987147;28;20485;-71
2021/12/13 06:15:20;;;;;;;5.87;3.70;;;10.80;99.90;;;;;;4987330;28;20482;-68
2021/12/13 06:17:51;;;;;;;7.70;4.33;;;10.80;99.90;;;;;;4987800;28;20572;-69
2021/12/13 06:20:23;;;;;;;7.40;3.33;;;10.80;99.90;;;;;;4984180;28;20543;-70
2021/12/13 06:22:51;;;;;;;8.37;4.87;;;10.90;99.90;;;;;;4984030;28;20465;-68
2021/12/13 06:25:21;;;;;;;8.43;4.10;;;10.90;99.90;;;;;;4986695;28;21324;-70
2021/12/13 06:27:51;;;;;;;16.50;4.50;;;10.70;99.90;;;;;;4987181;28;20535;-71
2021/12/13 06:30:22;;;;;;;8.87;5.40;;;10.90;99.90;;;;;;4988275;28;20524;-71
2021/12/13 06:32:53;;;;;;;6.33;5.13;;;10.80;99.90;;;;;;4987651;28;20479;-71
2021/12/13 06:35:48;;;;;;;9.13;5.00;;;10.80;99.90;;;;;;4991324;28;20433;-70
2021/12/13 06:38:43;;;;;;;7.27;4.40;;;10.90;99.90;;;;;;4986599;28;20485;-68
2021/12/13 06:41:21;;;;;;;7.23;4.30;;;10.80;99.90;;;;;;4991058;28;20458;-69
2021/12/13 06:43:51;;;;;;;19.10;6.50;;;10.90;99.90;;;;;;4977869;28;20572;-70
2021/12/13 06:46:45;;;;;;;11.07;5.70;;;10.90;99.90;;;;;;4984526;28;20515;-71
2021/12/13 06:49:18;;;;;;;10.83;5.03;;;10.90;99.90;;;;;;4991078;28;20466;-71
2021/12/13 06:51:50;;;;;;;8.43;4.43;;;11.00;99.90;;;;;;4990018;28;20485;-69
2021/12/13 06:54:21;;;;;;;8.53;4.73;;;10.90;99.90;;;;;;4987191;28;20559;-69
2021/12/13 06:56:56;;;;;;;10.97;5.93;;;10.90;99.90;;;;;;4989742;28;20478;-69
2021/12/13 06:59:23;;;;;;;6.07;3.80;;;10.90;99.90;;;;;;4990210;28;20481;-71
2021/12/13 07:02:00;;;;;;;8.67;5.03;;;10.80;99.90;;;;;;4989733;28;20491;-70
2021/12/13 07:04:27;;;;;;;9.50;5.33;;;10.80;99.90;;;;;;4987609;28;20482;-70
2021/12/13 07:07:09;;;;;;;12.50;5.27;;;10.90;99.90;;;;;;4987118;28;20515;-70
2021/12/13 07:09:39;;;;;;;8.73;4.97;;;10.80;99.90;;;;;;4992686;28;20771;-71
2021/12/13 07:12:14;;;;;;;9.63;5.23;;;10.90;99.90;;;;;;4985534;28;20563;-70
2021/12/13 07:14:42;;;;;;;6.70;4.43;;;10.90;99.90;;;;;;4984276;28;21032;-69
2021/12/13 07:17:15;;;;;;;8.47;5.23;;;10.90;99.90;;;;;;4989558;28;20470;-70
2021/12/13 07:19:44;;;;;;;8.50;6.00;;;11.00;99.90;;;;;;4992027;28;20485;-69
2021/12/13 07:22:18;;;;;;;6.40;4.60;;;10.90;99.90;;;;;;4989563;28;20466;-69
2021/12/13 07:24:49;;;;;;;10.50;4.27;;;11.00;99.90;;;;;;4987773;28;20580;-69
2021/12/13 07:27:19;;;;;;;7.70;3.63;;;11.10;99.90;;;;;;4990528;28;20571;-69
2021/12/13 07:29:50;;;;;;;6.60;4.27;;;11.10;99.90;;;;;;4993625;28;20457;-69
2021/12/13 07:32:21;;;;;;;5.13;3.80;;;11.00;99.90;;;;;;4991507;28;20490;-69
2021/12/13 07:34:54;;;;;;;6.23;5.00;;;11.00;99.90;;;;;;4979471;28;22121;-71
2021/12/13 07:37:41;;;;;;;8.03;4.70;;;10.90;99.90;;;;;;4981528;28;20463;-69
2021/12/13 07:40:32;;;;;;;7.57;5.00;;;11.00;99.90;;;;;;4988713;28;20757;-70
2021/12/13 07:43:05;;;;;;;5.57;3.83;;;10.90;99.90;;;;;;4991972;28;20551;-71
2021/12/13 07:45:36;;;;;;;7.33;4.47;;;10.90;99.90;;;;;;4985002;28;20462;-70
2021/12/13 07:48:07;;;;;;;6.30;3.90;;;10.90;99.90;;;;;;4988229;28;20512;-68
2021/12/13 07:50:37;;;;;;;7.60;5.63;;;10.90;99.90;;;;;;4989634;28;20546;-70
2021/12/13 07:53:14;;;;;;;6.63;4.40;;;11.00;99.90;;;;;;4982971;28;20578;-72
2021/12/13 07:55:47;;;;;;;6.90;4.40;;;10.90;99.90;;;;;;4983302;28;20511;-70
2021/12/13 07:58:18;;;;;;;8.37;5.17;;;11.00;99.90;;;;;;4990025;28;20485;-70
2021/12/13 08:00:46;;;;;;;6.07;3.63;;;11.00;99.90;;;;;;4987256;28;20453;-71
2021/12/13 08:03:17;;;;;;;4.50;4.10;;;11.00;99.90;;;;;;4986045;28;21821;-71
2021/12/13 08:05:50;;;;;;;5.13;3.70;;;11.00;99.90;;;;;;4985895;28;20513;-70
2021/12/13 08:08:22;;;;;;;5.07;3.97;;;10.90;99.90;;;;;;4993078;28;20655;-69
2021/12/13 08:10:50;;;;;;;5.80;3.67;;;10.90;99.90;;;;;;4986366;28;20825;-69
2021/12/13 08:13:20;;;;;;;5.07;3.47;;;11.00;99.90;;;;;;4976300;28;20533;-69
2021/12/13 08:15:50;;;;;;;6.40;4.20;;;11.00;99.90;;;;;;4978725;28;20576;-69
2021/12/13 08:18:26;;;;;;;10.13;4.97;;;10.90;99.90;;;;;;4986035;28;20461;-69
2021/12/13 08:20:57;;;;;;;4.10;3.70;;;10.90;99.90;;;;;;4984680;28;20462;-70
2021/12/13 08:23:28;;;;;;;5.67;3.60;;;10.90;99.90;;;;;;4986904;28;20513;-71
2021/12/13 08:26:01;;;;;;;4.87;4.27;;;10.90;99.90;;;;;;4986434;28;20482;-71
2021/12/13 08:28:37;;;;;;;6.00;3.47;;;10.90;99.90;;;;;;4991036;28;21115;-70
2021/12/13 08:31:07;;;;;;;9.47;3.83;;;10.90;99.90;;;;;;4991419;28;20493;-70
2021/12/13 08:33:39;;;;;;;4.47;3.47;;;10.90;99.90;;;;;;5000615;28;20498;-72
2021/12/13 08:36:09;;;;;;;5.30;3.13;;;11.10;99.90;;;;;;4991789;28;20557;-71
2021/12/13 08:38:45;;;;;;;5.60;3.80;;;11.10;99.90;;;;;;4991713;28;21080;-70
2021/12/13 08:41:24;;;;;;;4.07;3.37;;;11.00;99.90;;;;;;4992763;28;20576;-71
2021/12/13 08:43:54;;;;;;;4.83;3.40;;;11.00;99.90;;;;;;4987763;28;20482;-72
2021/12/13 08:46:39;;;;;;;7.17;4.00;;;11.10;99.90;;;;;;4967705;28;20548;-70
2021/12/13 08:49:25;;;;;;;5.03;3.10;;;11.10;99.90;;;;;;4988845;28;20832;-70
2021/12/13 08:51:58;;;;;;;6.90;3.70;;;11.00;99.90;;;;;;4987374;28;20424;-70
2021/12/13 08:54:44;;;;;;;5.67;4.03;;;11.10;99.90;;;;;;4981343;28;20485;-69
2021/12/13 08:57:42;;;;;;;4.30;3.90;;;11.00;99.90;;;;;;4982358;28;20496;-71
2021/12/13 09:00:23;;;;;;;8.20;2.93;;;11.00;99.90;;;;;;4985953;28;20975;-70
2021/12/13 09:02:56;;;;;;;4.20;3.33;;;10.90;99.90;;;;;;4983518;28;20594;-69
2021/12/13 09:05:27;;;;;;;3.67;2.17;;;11.00;99.90;;;;;;4983264;28;20954;-70
2021/12/13 09:07:57;;;;;;;5.73;3.10;;;11.10;99.90;;;;;;4986084;28;20458;-69
2021/12/13 09:10:44;;;;;;;4.87;3.33;;;11.00;99.90;;;;;;4983947;28;20525;-71
2021/12/13 09:13:12;;;;;;;6.73;3.63;;;11.10;99.90;;;;;;4986528;28;20918;-70
2021/12/13 09:15:40;;;;;;;11.30;4.77;;;11.20;99.90;;;;;;4986014;28;20873;-69
2021/12/13 09:18:09;;;;;;;6.87;3.60;;;11.10;99.90;;;;;;4985837;28;20883;-71
2021/12/13 09:20:41;;;;;;;3.10;2.77;;;11.20;99.90;;;;;;4985257;28;20551;-70
2021/12/13 09:23:14;;;;;;;5.20;4.03;;;11.20;99.90;;;;;;4985639;28;20490;-71
2021/12/13 09:25:46;;;;;;;6.63;3.67;;;11.10;99.90;;;;;;4971428;28;20481;-69
2021/12/13 09:28:16;;;;;;;5.50;4.13;;;11.10;99.90;;;;;;4986131;28;20957;-69
2021/12/13 09:30:48;;;;;;;5.27;3.00;;;11.10;99.90;;;;;;4988964;28;20485;-69
2021/12/13 09:33:20;;;;;;;4.57;2.53;;;11.10;99.90;;;;;;4984829;28;20568;-68
2021/12/13 09:35:53;;;;;;;3.30;2.40;;;11.10;99.90;;;;;;4980874;28;20482;-71
2021/12/13 09:38:34;;;;;;;4.23;3.30;;;11.20;99.90;;;;;;4985638;28;20806;-70
2021/12/13 09:41:15;;;;;;;4.87;3.07;;;11.10;99.90;;;;;;4987030;28;20479;-69
2021/12/13 09:43:47;;;;;;;5.10;2.93;;;11.20;99.90;;;;;;4984483;28;20482;-71
2021/12/13 09:46:19;;;;;;;4.60;3.20;;;11.20;99.90;;;;;;4984870;28;20470;-69
2021/12/13 09:48:49;;;;;;;5.00;3.80;;;11.30;99.90;;;;;;4987200;28;20928;-72
2021/12/13 09:51:21;;;;;;;7.27;2.97;;;11.30;99.90;;;;;;4989407;28;21114;-70
2021/12/13 09:53:51;;;;;;;6.30;3.97;;;11.40;99.90;;;;;;4986833;28;20486;-70
2021/12/13 09:56:23;;;;;;;5.30;3.30;;;11.40;99.90;;;;;;4983371;28;22349;-70
2021/12/13 09:58:53;;;;;;;4.53;2.90;;;11.30;99.90;;;;;;4985553;28;20466;-69
2021/12/13 10:01:23;;;;;;;6.23;3.60;;;11.20;99.90;;;;;;4983221;28;20552;-70
2021/12/13 10:03:56;;;;;;;5.13;3.23;;;11.30;99.90;;;;;;4986216;28;20477;-70
2021/12/13 10:06:30;;;;;;;5.90;2.50;;;11.40;99.90;;;;;;4976256;28;20996;-69
2021/12/13 10:09:04;;;;;;;5.70;3.47;;;11.40;99.90;;;;;;4983997;28;20540;-70
2021/12/13 10:11:36;;;;;;;5.67;3.23;;;11.40;99.90;;;;;;4989798;28;20457;-70
2021/12/13 10:14:05;;;;;;;7.27;4.47;;;11.50;99.90;;;;;;4989024;28;20649;-70
2021/12/13 10:16:34;;;;;;;3.57;2.80;;;11.50;99.90;;;;;;4989413;28;20532;-69
2021/12/13 10:19:04;;;;;;;3.33;3.03;;;11.40;99.90;;;;;;4988438;28;20458;-71
2021/12/13 10:21:34;;;;;;;2.60;2.20;;;11.40;99.90;;;;;;4988702;28;20532;-70
2021/12/13 10:24:04;;;;;;;3.70;2.57;;;11.40;99.90;;;;;;4987979;28;20548;-71
2021/12/13 10:26:37;;;;;;;4.27;3.20;;;11.50;99.90;;;;;;4980200;28;20832;-71
2021/12/13 10:29:08;;;;;;;4.70;2.83;;;11.50;99.90;;;;;;4983550;28;20476;-70
2021/12/13 10:31:38;;;;;;;3.40;2.27;;;11.50;99.90;;;;;;4980703;28;20473;-70
2021/12/13 10:34:14;;;;;;;6.63;2.50;;;11.50;99.90;;;;;;4980037;28;20525;-72
2021/12/13 10:36:44;;;;;;;2.53;2.33;;;11.40;99.90;;;;;;4979338;28;20516;-70
2021/12/13 10:39:18;;;;;;;4.40;3.47;;;11.40;99.90;;;;;;4984998;28;20486;-70
2021/12/13 10:41:49;;;;;;;4.17;2.23;;;11.40;99.90;;;;;;4990389;28;20449;-69
2021/12/13 10:44:25;;;;;;;5.00;2.17;;;11.40;99.90;;;;;;4986879;28;20489;-70
2021/12/13 10:46:57;;;;;;;7.13;4.13;;;11.50;99.90;;;;;;4974038;28;20909;-70
2021/12/13 10:49:26;;;;;;;3.57;2.90;;;11.50;99.90;;;;;;4987631;28;20506;-70
2021/12/13 10:52:08;;;;;;;4.33;2.77;;;11.50;99.90;;;;;;4990005;28;20545;-69
2021/12/13 10:54:37;;;;;;;5.73;3.10;;;11.50;99.90;;;;;;4986878;28;20540;-71
2021/12/13 10:57:10;;;;;;;4.63;3.00;;;11.40;99.90;;;;;;4986527;28;20538;-69
2021/12/13 10:59:38;;;;;;;4.60;2.67;;;11.40;99.90;;;;;;4984704;28;20939;-70
2021/12/13 11:02:10;;;;;;;4.03;2.47;;;11.40;99.90;;;;;;4987349;28;20892;-70
2021/12/13 11:04:43;;;;;;;6.73;2.50;;;11.40;99.90;;;;;;4982902;28;20486;-70
2021/12/13 11:07:12;;;;;;;7.00;6.30;;;11.50;99.90;;;;;;4981278;28;20520;-69
2021/12/13 11:09:42;;;;;;;7.30;2.90;;;11.30;99.90;;;;;;4988395;28;20517;-69
2021/12/13 11:12:17;;;;;;;3.40;2.70;;;11.30;99.90;;;;;;4984248;28;20975;-71
2021/12/13 11:14:46;;;;;;;6.50;1.90;;;11.30;99.90;;;;;;4986638;28;20548;-69
2021/12/13 11:17:17;;;;;;;7.13;3.10;;;11.30;99.90;;;;;;4982446;28;20466;-69
2021/12/13 11:19:47;;;;;;;3.17;2.77;;;11.20;99.90;;;;;;4983735;28;20458;-72
2021/12/13 11:22:21;;;;;;;3.60;2.37;;;11.30;99.90;;;;;;4983960;28;20889;-70
2021/12/13 11:24:52;;;;;;;3.20;2.90;;;11.30;99.90;;;;;;4971165;28;20891;-73
2021/12/13 11:27:23;;;;;;;3.13;2.67;;;11.30;99.90;;;;;;4987816;28;20450;-70
2021/12/13 11:29:51;;;;;;;3.77;3.47;;;11.30;99.90;;;;;;4988936;28;20970;-70
2021/12/13 11:32:54;;;;;;;4.47;1.80;;;11.40;99.90;;;;;;4981891;28;20476;-71
2021/12/13 11:35:55;;;;;;;6.30;3.20;;;11.40;99.90;;;;;;4983498;28;20563;-70
2021/12/13 11:38:54;;;;;;;2.37;2.17;;;11.40;99.90;;;;;;4986178;28;20466;-72
2021/12/13 11:41:57;;;;;;;4.50;2.27;;;11.30;99.90;;;;;;4976652;28;20871;-70
2021/12/13 11:44:54;;;;;;;4.57;2.77;;;11.50;99.90;;;;;;4987384;28;20506;-71
2021/12/13 11:48:05;;;;;;;5.23;2.70;;;11.40;99.90;;;;;;4988323;28;20873;-73
2021/12/13 11:51:02;;;;;;;4.70;3.33;;;11.30;99.90;;;;;;4999892;28;20520;-72
2021/12/13 11:54:09;;;;;;;13.53;3.37;;;11.40;99.90;;;;;;5003778;28;20482;-70
2021/12/13 11:56:48;;;;;;;6.40;3.43;;;11.40;99.90;;;;;;4984316;28;20490;-71
2021/12/13 11:59:40;;;;;;;3.53;2.60;;;11.30;99.90;;;;;;4988103;28;20528;-70
2021/12/13 12:02:12;;;;;;;4.30;3.10;;;11.50;99.90;;;;;;4976803;28;20537;-70
2021/12/13 12:05:15;;;;;;;5.87;2.30;;;11.50;99.90;;;;;;4979686;28;20559;-70
2021/12/13 12:08:23;;;;;;;5.70;2.80;;;11.60;99.90;;;;;;4985709;28;20534;-72
2021/12/13 12:11:36;;;;;;;6.03;2.70;;;11.60;99.90;;;;;;4976338;28;20457;-70
2021/12/13 12:14:06;;;;;;;1.70;1.60;;;11.50;99.90;;;;;;4989365;28;20944;-71
2021/12/13 12:16:39;;;;;;;4.17;2.20;;;11.60;99.90;;;;;;4986723;28;20472;-70
2021/12/13 12:19:10;;;;;;;3.27;2.20;;;11.70;99.90;;;;;;4988015;28;20838;-70
2021/12/13 12:21:42;;;;;;;3.07;2.30;;;11.70;99.90;;;;;;4980987;28;20443;-71
2021/12/13 12:24:11;;;;;;;3.20;2.40;;;11.70;99.90;;;;;;4981552;28;20517;-70
2021/12/13 12:26:39;;;;;;;5.43;2.30;;;11.60;99.90;;;;;;4981786;28;20524;-71
2021/12/13 12:29:11;;;;;;;3.03;2.40;;;11.70;99.90;;;;;;4985016;28;20520;-70
2021/12/13 12:31:42;;;;;;;4.80;2.87;;;11.70;99.90;;;;;;4986850;28;20458;-70
2021/12/13 12:34:11;;;;;;;3.87;3.00;;;11.60;99.90;;;;;;4984296;28;20589;-69
2021/12/13 12:36:43;;;;;;;4.07;3.33;;;11.60;99.90;;;;;;4984107;28;20901;-69
2021/12/13 12:39:45;;;;;;;3.73;3.43;;;11.60;99.90;;;;;;4989561;28;20521;-69
2021/12/13 12:42:24;;;;;;;8.00;2.53;;;11.50;99.90;;;;;;4986763;28;20472;-69
2021/12/13 12:45:04;;;;;;;6.70;2.77;;;11.60;99.90;;;;;;4975043;28;20556;-68
2021/12/13 12:48:02;;;;;;;5.00;2.97;;;11.80;99.90;;;;;;4979073;28;20485;-70
2021/12/13 12:50:32;;;;;;;6.20;3.47;;;11.90;99.90;;;;;;4976687;28;20566;-72
2021/12/13 12:53:02;;;;;;;3.90;2.23;;;11.90;99.90;;;;;;4987534;28;20471;-70
2021/12/13 12:55:32;;;;;;;3.70;2.23;;;11.90;99.90;;;;;;4977623;28;21322;-69
2021/12/13 12:58:06;;;;;;;2.30;2.00;;;12.00;99.90;;;;;;4978427;28;20463;-70
2021/12/13 13:00:34;;;;;;;1.80;1.70;;;12.00;99.90;;;;;;4977507;28;20589;-70
2021/12/13 13:03:03;;;;;;;2.20;1.63;;;12.10;99.90;;;;;;4979627;28;20872;-69
2021/12/13 13:05:31;;;;;;;1.40;1.30;;;11.90;99.90;;;;;;4980965;28;20722;-69
2021/12/13 13:08:00;;;;;;;2.43;2.20;;;11.90;99.90;;;;;;4979288;28;20484;-71
2021/12/13 13:13:15;;;;;;;8.53;2.80;;;12.00;99.90;;;;;;4982825;28;20488;-70
2021/12/13 13:15:45;;;;;;;2.40;2.20;;;12.00;99.90;;;;;;4974229;28;20494;-70
2021/12/13 13:18:16;;;;;;;1.70;1.40;;;11.80;99.90;;;;;;4975445;28;20462;-71
2021/12/13 13:20:48;;;;;;;4.43;2.20;;;11.80;99.90;;;;;;4979578;28;20514;-70